Moleson — HBLE — position and weather

sailwx.info

Track history (hours):
 
Tides and Currents Weather Stations Pressure Air Temp Water Temp Dewpoint Dewpoint Depression Visibility Wind Speed Wind Dir Waves Ship Positions

Moleson

Last reported at 2016-Jul-17 07:15 UTC. Time now 2016-Jul-27 13:27 UTC.
Position N 24°46' W 016°35'.
Warning: this ship's position is 10 days out of date.

Length 181 m; draft 9.8 m.

Type: Ship. MMSI: 269039000.

Date/timePositionNaut miles runAvg speedWind from/ knotsBaromVisibWave heightAir tempDewpointWater temp
2016-Jul-17 07:15N 24°46' W 016°35'20612.8
2016-Jul-16 15:05N 28°01' W 015°19'611.4
2016-Jul-16 14:33N 28°06' W 015°23'2 1.6
2016-Jul-16 13:32N 28°06' W 015°24'0 0.0
2016-Jul-15 19:11N 28°06' W 015°24'0 0.0
2016-Jul-15 18:29N 28°06' W 015°24'0 0.0
2016-Jul-15 13:32N 28°06' W 015°24'4 3.9
2016-Jul-15 12:33N 28°08' W 015°20'10 9.9
2016-Jul-15 11:33N 28°17' W 015°16'1812.3
2016-Jul-15 10:04N 28°34' W 015°10'612.2
2016-Jul-15 09:33N 28°40' W 015°08'1312.1
2016-Jul-15 08:29N 28°53' W 015°03'42912.5
2016-Jul-13 22:05N 35°46' W 012°49'912.1
2016-Jul-13 21:20N 35°55' W 012°47'1012.1
2016-Jul-13 20:31N 36°05' W 012°44'1212.6
2016-Jul-13 19:34N 36°16' W 012°40'1212.3
2016-Jul-13 18:33N 36°28' W 012°37'1212.5
2016-Jul-13 17:34N 36°40' W 012°33'1212.2
2016-Jul-13 16:33N 36°52' W 012°30'1312.1
2016-Jul-13 15:31N 37°05' W 012°25'1312.2
2016-Jul-13 14:26N 37°17' W 012°22'3612.3
2016-Jul-13 11:32N 37°52' W 012°12'1212.3
2016-Jul-13 10:33N 38°04' W 012°08'5012.5
2016-Jul-13 06:33N 38°52' W 011°53'  
2016-Jul-10 12:15N 49°39' W 003°54'7 9.8
2016-Jul-10 11:33N 49°43' W 003°45'9 9.3
2016-Jul-10 10:33N 49°47' W 003°33'9 9.3
2016-Jul-10 09:33N 49°52' W 003°20'10 9.9
2016-Jul-10 08:33N 49°58' W 003°07'1110.9
2016-Jul-10 07:32N 50°02' W 002°51'4513.5
2016-Jul-10 04:14N 50°14' W 001°44'913.5
2016-Jul-10 03:33N 50°16' W 001°31'1212.3
2016-Jul-10 02:33N 50°19' W 001°12'1210.5
2016-Jul-10 01:24N 50°23' W 000°54'8 9.4
2016-Jul-10 00:33N 50°25' W 000°42'9 9.4
2016-Jul-09 23:33N 50°27' W 000°27'1010.5
2016-Jul-09 22:33N 50°30' W 000°11'1211.7
2016-Jul-09 21:33N 50°33' E 000°06'1312.7
2016-Jul-09 20:33N 50°37' E 000°26'2512.7
2016-Jul-09 18:33N 50°50' E 000°60'1111.4
2016-Jul-09 17:33N 50°57' E 001°14'10 9.8
2016-Jul-09 16:33N 51°03' E 001°26'9 8.6
2016-Jul-09 15:33N 51°09' E 001°37'9 8.8
2016-Jul-09 14:33N 51°15' E 001°47'1010.4
2016-Jul-09 13:33N 51°24' E 001°54'1211.9
2016-Jul-09 12:33N 51°33' E 002°06'1312.6
2016-Jul-09 11:33N 51°43' E 002°20'1312.7
2016-Jul-09 10:33N 51°53' E 002°32'1312.6
2016-Jul-09 09:33N 52°05' E 002°37'1211.9
2016-Jul-09 08:31N 52°17' E 002°45'5511.0
2016-Jul-09 03:32N 53°07' E 003°22'1212.5
2016-Jul-09 02:33N 53°18' E 003°28'1312.5
2016-Jul-09 01:33N 53°30' E 003°34'1312.4
2016-Jul-09 00:31N 53°42' E 003°41'30811.4
2016-Jul-07 21:33N 57°41' E 009°26'3310.8
2016-Jul-07 18:32N 57°48' E 010°26'1010.4
2016-Jul-07 17:31N 57°48' E 010°46'1010.8
2016-Jul-07 16:33N 57°42' E 011°01'1212.0
2016-Jul-07 15:33N 57°33' E 011°17'1211.7
2016-Jul-07 14:33N 57°24' E 011°29'1211.8
2016-Jul-07 13:32N 57°12' E 011°36'  
Track history (hours):
 
Tides and Currents Weather Stations Pressure Air Temp Water Temp Dewpoint Dewpoint Depression Visibility Wind Speed Wind Dir Waves Ship Positions

Moleson

Last reported at 2016-Jul-17 07:15 UTC. Time now 2016-Jul-27 13:27 UTC.
Position N 24°46' W 016°35'.
Warning: this ship's position is 10 days out of date.

Length 181 m; draft 9.8 m.

Type: Ship. MMSI: 269039000.

Date/timePositionNaut miles runAvg speedWind from/ knotsBaromVisibWave heightAir tempDewpointWater temp
2016-Jul-17 07:15N 24°46' W 016°35'20612.8
2016-Jul-16 15:05N 28°01' W 015°19'611.4
2016-Jul-16 14:33N 28°06' W 015°23'2 1.6
2016-Jul-16 13:32N 28°06' W 015°24'0 0.0
2016-Jul-15 19:11N 28°06' W 015°24'0 0.0
2016-Jul-15 18:29N 28°06' W 015°24'0 0.0
2016-Jul-15 13:32N 28°06' W 015°24'4 3.9
2016-Jul-15 12:33N 28°08' W 015°20'10 9.9
2016-Jul-15 11:33N 28°17' W 015°16'1812.3
2016-Jul-15 10:04N 28°34' W 015°10'612.2
2016-Jul-15 09:33N 28°40' W 015°08'1312.1
2016-Jul-15 08:29N 28°53' W 015°03'42912.5
2016-Jul-13 22:05N 35°46' W 012°49'912.1
2016-Jul-13 21:20N 35°55' W 012°47'1012.1
2016-Jul-13 20:31N 36°05' W 012°44'1212.6
2016-Jul-13 19:34N 36°16' W 012°40'1212.3
2016-Jul-13 18:33N 36°28' W 012°37'1212.5
2016-Jul-13 17:34N 36°40' W 012°33'1212.2
2016-Jul-13 16:33N 36°52' W 012°30'1312.1
2016-Jul-13 15:31N 37°05' W 012°25'1312.2
2016-Jul-13 14:26N 37°17' W 012°22'3612.3
2016-Jul-13 11:32N 37°52' W 012°12'1212.3
2016-Jul-13 10:33N 38°04' W 012°08'5012.5
2016-Jul-13 06:33N 38°52' W 011°53'  
2016-Jul-10 12:15N 49°39' W 003°54'7 9.8
2016-Jul-10 11:33N 49°43' W 003°45'9 9.3
2016-Jul-10 10:33N 49°47' W 003°33'9 9.3
2016-Jul-10 09:33N 49°52' W 003°20'10 9.9
2016-Jul-10 08:33N 49°58' W 003°07'1110.9
2016-Jul-10 07:32N 50°02' W 002°51'4513.5
2016-Jul-10 04:14N 50°14' W 001°44'913.5
2016-Jul-10 03:33N 50°16' W 001°31'1212.3
2016-Jul-10 02:33N 50°19' W 001°12'1210.5
2016-Jul-10 01:24N 50°23' W 000°54'8 9.4
2016-Jul-10 00:33N 50°25' W 000°42'9 9.4
2016-Jul-09 23:33N 50°27' W 000°27'1010.5
2016-Jul-09 22:33N 50°30' W 000°11'1211.7
2016-Jul-09 21:33N 50°33' E 000°06'1312.7
2016-Jul-09 20:33N 50°37' E 000°26'2512.7
2016-Jul-09 18:33N 50°50' E 000°60'1111.4
2016-Jul-09 17:33N 50°57' E 001°14'10 9.8
2016-Jul-09 16:33N 51°03' E 001°26'9 8.6
2016-Jul-09 15:33N 51°09' E 001°37'9 8.8
2016-Jul-09 14:33N 51°15' E 001°47'1010.4
2016-Jul-09 13:33N 51°24' E 001°54'1211.9
2016-Jul-09 12:33N 51°33' E 002°06'1312.6
2016-Jul-09 11:33N 51°43' E 002°20'1312.7
2016-Jul-09 10:33N 51°53' E 002°32'1312.6
2016-Jul-09 09:33N 52°05' E 002°37'1211.9
2016-Jul-09 08:31N 52°17' E 002°45'5511.0
2016-Jul-09 03:32N 53°07' E 003°22'1212.5
2016-Jul-09 02:33N 53°18' E 003°28'1312.5
2016-Jul-09 01:33N 53°30' E 003°34'1312.4
2016-Jul-09 00:31N 53°42' E 003°41'30811.4
2016-Jul-07 21:33N 57°41' E 009°26'3310.8
2016-Jul-07 18:32N 57°48' E 010°26'1010.4
2016-Jul-07 17:31N 57°48' E 010°46'1010.8
2016-Jul-07 16:33N 57°42' E 011°01'1212.0
2016-Jul-07 15:33N 57°33' E 011°17'1211.7
2016-Jul-07 14:33N 57°24' E 011°29'1211.8
2016-Jul-07 13:32N 57°12' E 011°36'  

Dump ship's entire track history